Time;durP1;ratioP1;P1;durP2;ratioP2;P2;SDS_P1;SDS_P2;PMS_P1;PMS_P2;Temp;Humidity;BMP_temperature;BMP_pressure;BME280_temperature;BME280_humidity;BME280_pressure;Samples;Min_cycle;Max_cycle;Signal;HPM_P1;HPM_P2
2023/10/10 00:01:18;;;;;;;;;12.33;11.33;;;;;17.37;83.99;102045.09;4957846;28;8946;-68
2023/10/10 00:03:45;;;;;;;;;10.00;9.00;;;;;17.35;84.15;102044.50;4949490;28;9021;-68
2023/10/10 00:06:13;;;;;;;;;14.33;13.67;;;;;17.34;84.04;102048.28;4945747;28;9007;-67
2023/10/10 00:08:41;;;;;;;;;11.67;8.67;;;;;17.34;84.00;102041.97;4957853;28;9075;-68
2023/10/10 00:11:14;;;;;;;;;9.00;9.00;;;;;17.32;84.32;102039.47;4945709;28;9659;-67
2023/10/10 00:13:42;;;;;;;;;12.33;9.00;;;;;17.32;84.31;102041.34;4941330;28;9201;-69
2023/10/10 00:16:25;;;;;;;;;12.33;12.00;;;;;17.30;84.50;102039.69;4959516;28;9549;-69
2023/10/10 00:18:56;;;;;;;;;12.67;12.00;;;;;17.30;84.59;102033.41;4947546;28;9096;-66
2023/10/10 00:21:23;;;;;;;;;10.67;10.67;;;;;17.25;84.45;102042.16;4948557;28;8922;-69
2023/10/10 00:23:51;;;;;;;;;8.00;8.00;;;;;17.27;85.09;102039.25;4951926;28;9810;-69
2023/10/10 00:26:20;;;;;;;;;8.00;8.00;;;;;17.28;85.27;102038.22;4948062;28;8828;-69
2023/10/10 00:28:55;;;;;;;;;6.50;6.00;;;;;17.29;85.21;102035.25;4950380;28;8959;-67
2023/10/10 00:31:25;;;;;;;;;13.33;13.33;;;;;17.32;85.04;102033.19;4944580;28;8870;-69
2023/10/10 00:33:53;;;;;;;;;10.67;7.67;;;;;17.32;85.22;102030.47;4959897;28;8999;-69
2023/10/10 00:36:35;;;;;;;;;8.67;8.33;;;;;17.30;85.07;102022.53;4951919;28;9011;-69
2023/10/10 00:41:50;;;;;;;;;8.25;8.00;;;;;17.29;84.35;102021.66;4946698;28;8862;-66
2023/10/10 00:44:17;;;;;;;;;7.50;7.50;;;;;17.27;84.84;102017.50;4952868;28;8913;-68
2023/10/10 00:46:49;;;;;;;;;11.75;10.00;;;;;17.27;84.82;102020.22;4946810;28;8851;-68
2023/10/10 00:49:17;;;;;;;;;10.00;8.67;;;;;17.25;84.69;102016.84;4935788;28;8875;-68
2023/10/10 00:51:47;;;;;;;;;10.00;9.33;;;;;17.24;84.96;102020.63;4951038;28;9006;-69
2023/10/10 00:56:54;;;;;;;;;8.33;8.33;;;;;17.22;84.96;102020.84;4941634;28;8847;-69
2023/10/10 00:59:34;;;;;;;;;8.00;8.00;;;;;17.21;85.03;102012.88;4941731;28;9007;-69
2023/10/10 01:02:05;;;;;;;;;12.00;10.67;;;;;17.22;85.23;102007.25;4948250;28;8961;-69
2023/10/10 01:04:38;;;;;;;;;10.75;8.25;;;;;17.22;84.95;102015.41;4942081;29;8921;-68
2023/10/10 01:07:07;;;;;;;;;11.33;11.00;;;;;17.23;85.28;102013.50;4962113;28;8823;-69
2023/10/10 01:09:39;;;;;;;;;13.50;11.50;;;;;17.22;84.88;102009.97;4956491;28;9022;-68
2023/10/10 01:12:06;;;;;;;;;12.67;12.67;;;;;17.22;85.32;102006.41;4938112;28;8863;-68
2023/10/10 01:14:32;;;;;;;;;12.00;11.00;;;;;17.21;85.18;102002.81;4960777;28;8956;-69
2023/10/10 01:17:05;;;;;;;;;16.00;15.33;;;;;17.21;85.30;102004.72;4943542;28;9111;-69
2023/10/10 01:19:34;;;;;;;;;13.33;11.00;;;;;17.17;85.35;102006.16;4957549;28;9083;-69
2023/10/10 01:22:03;;;;;;;;;13.33;11.00;;;;;17.18;85.71;101999.72;4943528;28;9182;-68
2023/10/10 01:24:31;;;;;;;;;11.67;11.67;;;;;17.17;85.52;101995.28;4959374;28;9694;-68
2023/10/10 01:27:17;;;;;;;;;14.33;12.33;;;;;17.17;85.72;101993.41;4958249;28;9177;-69
2023/10/10 01:29:50;;;;;;;;;16.00;11.00;;;;;17.18;85.78;101981.50;4943714;28;9166;-69
2023/10/10 01:32:17;;;;;;;;;10.33;9.00;;;;;17.18;85.77;101981.50;4942308;28;8922;-68
2023/10/10 01:34:44;;;;;;;;;10.00;8.00;;;;;17.21;85.67;101986.50;4972120;28;8957;-69
2023/10/10 01:37:14;;;;;;;;;8.25;6.75;;;;;17.20;85.78;101978.56;4953768;28;9687;-68
2023/10/10 01:39:54;;;;;;;;;9.00;9.00;;;;;17.21;85.64;101982.94;4950229;28;8834;-68
2023/10/10 01:42:31;;;;;;;;;10.25;10.25;;;;;17.18;85.44;101980.66;4937133;28;9651;-68
2023/10/10 01:45:03;;;;;;;;;10.67;8.33;;;;;17.18;85.21;101984.22;4956719;28;8870;-67
2023/10/10 01:47:34;;;;;;;;;7.67;7.67;;;;;17.16;85.18;101989.00;4937956;28;8924;-69
2023/10/10 01:50:10;;;;;;;;;9.00;8.75;;;;;17.16;85.26;101991.72;4957032;28;9047;-69
2023/10/10 01:52:37;;;;;;;;;12.33;9.00;;;;;17.13;85.14;101989.44;4941984;28;8894;-68
2023/10/10 01:55:05;;;;;;;;;9.00;9.00;;;;;17.11;85.33;101982.53;4952367;28;9009;-69
2023/10/10 01:57:32;;;;;;;;;10.00;8.67;;;;;17.09;85.23;101988.16;4934790;28;9032;-68
2023/10/10 02:00:05;;;;;;;;;10.33;9.67;;;;;17.07;85.28;101968.50;4958313;28;8967;-69
2023/10/10 02:02:37;;;;;;;;;12.67;12.67;;;;;17.04;85.24;101972.47;4951115;28;9001;-68
2023/10/10 02:05:04;;;;;;;;;10.00;10.00;;;;;17.04;85.29;101969.75;4941760;28;8944;-68
2023/10/10 02:07:31;;;;;;;;;12.33;10.67;;;;;17.02;85.06;101966.44;4941066;28;9044;-69
2023/10/10 02:10:13;;;;;;;;;10.67;9.33;;;;;17.00;85.25;101954.91;4962405;28;9772;-69
2023/10/10 02:12:44;;;;;;;;;15.33;9.67;;;;;16.99;85.37;101964.13;4942423;28;9019;-67
2023/10/10 02:15:13;;;;;;;;;12.67;11.67;;;;;16.99;85.25;101966.00;4959136;28;9142;-69
2023/10/10 02:17:42;;;;;;;;;13.00;12.67;;;;;16.98;85.37;101964.34;4937278;28;9219;-69
2023/10/10 02:25:48;;;;;;;;;19.33;16.00;;;;;16.96;85.62;101956.38;4943771;28;10094;-68
2023/10/10 02:30:47;;;;;;;;;17.00;12.67;;;;;16.98;85.87;101945.31;4957365;28;9234;-68
2023/10/10 02:35:54;;;;;;;;;14.67;13.67;;;;;16.96;85.63;101940.06;4939433;28;9376;-68
2023/10/10 02:38:40;;;;;;;;;15.33;13.67;;;;;16.95;85.60;101941.09;4955460;28;9465;-67
2023/10/10 02:41:38;;;;;;;;;14.33;13.00;;;;;16.93;85.59;101928.75;4972737;28;9254;-67
2023/10/10 02:44:09;;;;;;;;;12.67;11.33;;;;;16.92;85.53;101922.47;4953777;28;9432;-68
2023/10/10 02:46:42;;;;;;;;;14.00;14.00;;;;;16.93;85.40;101920.59;4957781;28;9235;-67
2023/10/10 02:49:29;;;;;;;;;19.67;17.33;;;;;16.91;85.34;101918.09;4931734;28;9212;-67
2023/10/10 02:51:57;;;;;;;;;19.00;18.33;;;;;16.89;85.65;101913.91;4941294;28;9270;-68
2023/10/10 02:56:58;;;;;;;;;18.00;16.00;;;;;16.86;85.79;101923.34;4949589;28;9242;-69
2023/10/10 02:59:31;;;;;;;;;21.00;20.00;;;;;16.85;85.62;101918.09;4946675;28;9349;-68
2023/10/10 03:01:59;;;;;;;;;17.00;17.00;;;;;16.84;85.99;101914.53;4935611;28;9401;-68
2023/10/10 03:04:52;;;;;;;;;29.75;27.00;;;;;16.85;85.56;101912.63;4955559;28;10050;-68
2023/10/10 03:07:29;;;;;;;;;24.00;21.25;;;;;16.85;85.89;101912.63;4943000;28;9683;-66
2023/10/10 03:10:22;;;;;;;;;20.00;18.33;;;;;16.86;85.77;101909.72;4950943;28;9409;-68
2023/10/10 03:12:51;;;;;;;;;32.00;29.50;;;;;16.86;85.94;101909.72;4953028;28;9360;-68
2023/10/10 03:18:15;;;;;;;;;36.75;34.75;;;;;16.86;86.20;101914.34;4931877;28;9710;-68
2023/10/10 03:25:47;;;;;;;;;31.25;29.75;;;;;16.88;86.52;101909.50;4958651;28;9554;-67
2023/10/10 03:31:24;;;;;;;;;24.75;24.75;;;;;16.87;86.46;101903.25;4950669;28;9561;-69
2023/10/10 03:34:11;;;;;;;;;24.75;24.00;;;;;16.88;86.92;101907.63;4953152;28;9618;-68
2023/10/10 03:36:44;;;;;;;;;27.50;22.75;;;;;16.86;86.62;101908.91;4943661;28;9650;-69
2023/10/10 03:39:17;;;;;;;;;24.00;22.33;;;;;16.84;86.85;101908.25;4944081;28;9401;-68
2023/10/10 05:24:01;;;;;;;;;51.75;39.50;;;;;16.20;88.50;101804.50;4962617;28;10120;-68
2023/10/10 05:26:30;;;;;;;;;43.25;39.25;;;;;16.18;88.43;101793.03;4958108;28;10255;-67
2023/10/10 05:29:00;;;;;;;;;42.75;39.25;;;;;16.19;88.38;101789.25;4951115;28;10441;-68
2023/10/10 05:31:30;;;;;;;;;42.25;37.25;;;;;16.20;88.61;101785.47;4932023;28;10163;-69
2023/10/10 05:33:57;;;;;;;;;34.50;33.25;;;;;16.15;88.11;101781.72;4963993;28;10475;-67
2023/10/10 05:36:24;;;;;;;;;38.00;33.00;;;;;16.14;88.34;101786.34;4957631;28;10095;-68
2023/10/10 05:38:51;;;;;;;;;47.00;39.75;;;;;16.12;88.11;101777.53;4955373;28;10092;-67
2023/10/10 05:41:19;;;;;;;;;54.00;42.00;;;;;16.07;87.98;101774.63;4953992;28;10593;-68
2023/10/10 05:43:49;;;;;;;;;40.00;35.00;;;;;16.07;87.92;101777.34;4940201;28;10728;-66
2023/10/10 05:46:16;;;;;;;;;40.00;38.50;;;;;16.04;87.88;101781.31;4937205;28;10206;-66
2023/10/10 05:48:43;;;;;;;;;36.75;32.75;;;;;16.04;88.14;101777.75;4953594;28;10391;-66
2023/10/10 05:51:10;;;;;;;;;42.75;34.75;;;;;16.03;87.83;101773.38;4952887;28;10219;-67
2023/10/10 05:53:36;;;;;;;;;46.00;37.75;;;;;16.00;87.69;101774.63;4954172;28;9947;-67
2023/10/10 05:56:18;;;;;;;;;38.00;36.75;;;;;15.98;88.03;101784.03;4952459;28;10279;-67
2023/10/10 05:58:47;;;;;;;;;42.00;36.50;;;;;15.97;87.64;101785.91;4951682;28;10067;-67
2023/10/10 06:01:14;;;;;;;;;38.25;34.50;;;;;15.94;88.05;101793.63;4952152;28;10159;-68
2023/10/10 06:03:41;;;;;;;;;45.50;39.75;;;;;15.94;87.62;101801.78;4936383;28;9903;-67
2023/10/10 06:06:12;;;;;;;;;50.00;41.25;;;;;15.91;87.68;101802.16;4949800;28;10365;-68
2023/10/10 06:08:42;;;;;;;;;47.00;40.75;;;;;15.87;87.11;101790.88;4950139;28;10552;-67
2023/10/10 06:11:10;;;;;;;;;38.25;33.75;;;;;15.86;87.93;101780.25;4949043;28;11253;-67
2023/10/10 06:13:39;;;;;;;;;41.00;37.25;;;;;15.89;87.48;101787.97;4939737;28;10178;-67
2023/10/10 06:16:07;;;;;;;;;51.00;41.75;;;;;15.86;87.44;101797.38;4952204;28;10089;-67
2023/10/10 06:18:34;;;;;;;;;39.75;37.00;;;;;15.89;87.63;101788.81;4936930;28;10408;-67
2023/10/10 06:21:07;;;;;;;;;43.25;38.00;;;;;15.92;87.26;101788.41;4953971;28;10168;-66
2023/10/10 06:23:36;;;;;;;;;35.00;31.75;;;;;15.97;87.14;101795.94;4953843;28;10293;-66
2023/10/10 06:26:06;;;;;;;;;40.00;35.25;;;;;16.00;86.89;101800.94;4953117;28;10772;-67
2023/10/10 06:28:44;;;;;;;;;47.25;40.00;;;;;15.97;86.35;101804.91;4953750;28;10181;-67
2023/10/10 06:31:19;;;;;;;;;45.50;36.75;;;;;16.01;86.74;101792.59;4953367;28;10379;-68
2023/10/10 06:33:50;;;;;;;;;53.00;40.25;;;;;15.98;86.46;101784.84;4953468;28;10082;-67
2023/10/10 06:39:15;;;;;;;;;35.00;34.25;;;;;16.00;85.89;101785.50;4953323;28;10243;-68
2023/10/10 06:41:54;;;;;;;;;43.75;38.25;;;;;15.99;86.10;101785.69;4953195;28;10053;-67
2023/10/10 06:44:47;;;;;;;;;38.00;32.50;;;;;16.01;85.89;101786.31;4935917;28;10163;-68
2023/10/10 06:47:11;;;;;;;;;38.00;34.00;;;;;16.03;85.90;101781.50;4952821;28;9894;-67
2023/10/10 06:49:54;;;;;;;;;34.75;31.75;;;;;16.06;85.53;101778.38;4935839;28;10223;-67
2023/10/10 06:52:27;;;;;;;;;39.25;38.00;;;;;16.03;85.38;101774.19;4935807;28;10032;-68
2023/10/10 06:54:54;;;;;;;;;38.25;33.00;;;;;16.04;85.67;101770.47;4952902;28;10129;-67
2023/10/10 06:57:35;;;;;;;;;35.50;30.75;;;;;16.03;85.08;101771.47;4952707;28;9956;-68
2023/10/10 07:00:18;;;;;;;;;41.25;34.25;;;;;16.01;85.52;101770.88;4952682;28;9872;-67
2023/10/10 07:02:50;;;;;;;;;44.25;36.75;;;;;15.99;84.89;101775.66;4935468;28;10150;-67
2023/10/10 07:05:19;;;;;;;;;42.00;35.75;;;;;15.98;85.09;101775.88;4952516;28;10401;-67
2023/10/10 07:07:52;;;;;;;;;42.00;35.50;;;;;15.97;85.08;101776.91;4952401;28;10248;-67
2023/10/10 07:10:25;;;;;;;;;44.75;38.00;;;;;15.99;85.07;101770.22;4952404;28;10925;-67
2023/10/10 07:12:58;;;;;;;;;50.75;42.00;;;;;15.97;85.03;101766.88;4952374;28;10223;-68
2023/10/10 07:15:26;;;;;;;;;45.00;36.50;;;;;15.97;84.71;101768.78;4952550;28;10713;-67
2023/10/10 07:18:04;;;;;;;;;59.25;45.75;;;;;15.97;84.77;101768.78;4934739;28;10472;-66
2023/10/10 07:21:04;;;;;;;;;41.50;36.25;;;;;16.00;84.73;101762.91;4951842;28;10805;-67
2023/10/10 07:23:21;;;;;;;;;35.25;33.50;;;;;16.06;84.80;101759.38;4952321;28;10317;-68
2023/10/10 07:26:00;;;;;;;;;51.25;41.50;;;;;16.03;84.97;101757.91;4952368;28;10081;-68
2023/10/10 07:28:28;;;;;;;;;48.75;39.75;;;;;16.01;84.30;101760.00;4952349;28;10311;-67
2023/10/10 07:30:55;;;;;;;;;37.50;36.75;;;;;16.01;84.39;101760.00;4952458;28;10234;-68
2023/10/10 07:33:40;;;;;;;;;45.00;40.00;;;;;16.01;84.73;101764.59;4952224;28;10180;-68
2023/10/10 07:36:12;;;;;;;;;48.50;40.00;;;;;16.08;84.59;101768.13;4934957;28;10410;-68
2023/10/10 07:38:40;;;;;;;;;42.00;37.00;;;;;16.12;84.40;101777.53;4952283;28;10427;-67
2023/10/10 07:41:07;;;;;;;;;47.00;39.00;;;;;16.15;84.36;101768.97;4935095;28;10143;-67
2023/10/10 07:43:37;;;;;;;;;47.25;40.50;;;;;16.14;83.70;101767.31;4952115;28;10384;-67
2023/10/10 07:46:17;;;;;;;;;48.75;42.25;;;;;16.15;83.68;101758.13;4951687;28;10677;-68
2023/10/10 07:48:46;;;;;;;;;42.25;36.75;;;;;16.20;83.78;101762.91;4952230;28;10534;-68
2023/10/10 07:51:22;;;;;;;;;39.75;36.25;;;;;16.25;83.71;101766.69;4952134;28;10219;-68
2023/10/10 07:53:58;;;;;;;;;47.75;43.00;;;;;16.24;83.53;101775.03;4951896;28;10232;-67
2023/10/10 07:56:25;;;;;;;;;43.50;38.25;;;;;16.29;83.67;101769.84;4951681;28;10145;-68
2023/10/10 07:58:56;;;;;;;;;40.50;37.25;;;;;16.31;83.15;101768.56;4918989;28;10197;-68
2023/10/10 08:01:23;;;;;;;;;43.00;36.50;;;;;16.32;83.23;101767.50;4951932;28;10152;-68
2023/10/10 08:03:50;;;;;;;;;45.00;39.50;;;;;16.36;82.93;101777.97;4918752;28;10183;-68
2023/10/10 08:06:21;;;;;;;;;45.25;38.50;;;;;16.31;82.76;101775.88;4934249;28;10241;-68
2023/10/10 08:09:09;;;;;;;;;46.00;39.25;;;;;16.32;83.07;101783.81;4951884;28;10408;-67
2023/10/10 08:11:37;;;;;;;;;42.50;37.25;;;;;16.32;82.83;101780.25;4934523;28;10181;-67
2023/10/10 08:14:07;;;;;;;;;48.00;42.50;;;;;16.30;83.04;101766.06;4951880;28;10232;-68
2023/10/10 08:16:39;;;;;;;;;38.25;36.00;;;;;16.32;82.92;101775.66;4951661;28;10389;-68
2023/10/10 08:19:08;;;;;;;;;45.50;40.25;;;;;16.36;82.82;101778.78;4952029;28;10239;-67
2023/10/10 08:21:38;;;;;;;;;51.50;41.50;;;;;16.31;82.52;101774.00;4934523;28;11005;-66
2023/10/10 08:24:12;;;;;;;;;57.00;44.25;;;;;16.33;82.84;101776.53;4952136;28;10793;-67
2023/10/10 08:26:41;;;;;;;;;48.75;41.00;;;;;16.34;82.90;101774.63;4918341;28;10817;-66
2023/10/10 08:29:09;;;;;;;;;53.00;41.75;;;;;16.37;83.06;101776.94;4951799;28;10235;-68
2023/10/10 08:31:38;;;;;;;;;54.25;43.50;;;;;16.40;83.01;101773.78;4951660;28;10379;-68
2023/10/10 08:34:09;;;;;;;;;46.75;40.50;;;;;16.40;83.04;101768.34;4933576;28;10620;-68
2023/10/10 08:36:37;;;;;;;;;47.25;40.00;;;;;16.38;82.89;101770.47;4934104;29;11371;-68
2023/10/10 08:41:44;;;;;;;;;56.50;46.00;;;;;16.39;83.58;101772.13;4951664;29;10317;-68
2023/10/10 08:44:14;;;;;;;;;48.50;41.25;;;;;16.41;83.51;101761.91;4951653;29;10771;-68
2023/10/10 08:46:46;;;;;;;;;53.50;43.25;;;;;16.46;83.87;101773.78;4951223;28;10577;-67
2023/10/10 08:49:14;;;;;;;;;40.25;37.25;;;;;16.56;83.77;101767.91;4934421;29;10569;-68
2023/10/10 08:51:42;;;;;;;;;49.50;41.50;;;;;16.64;83.33;101770.41;4951630;29;10293;-68
2023/10/10 08:54:10;;;;;;;;;46.00;40.75;;;;;16.72;83.03;101772.06;4951563;29;10383;-66
2023/10/10 08:56:59;;;;;;;;;46.50;38.50;;;;;16.76;82.96;101770.63;4933779;29;10420;-67
2023/10/10 08:59:28;;;;;;;;;56.75;46.00;;;;;16.71;82.82;101776.69;4951444;29;10421;-68
2023/10/10 09:02:07;;;;;;;;;55.75;42.50;;;;;16.68;83.42;101773.53;4934306;29;10861;-68
2023/10/10 09:04:34;;;;;;;;;41.75;37.00;;;;;16.73;83.52;101771.91;4934359;29;10411;-68
2023/10/10 09:07:08;;;;;;;;;40.25;36.75;;;;;16.81;83.51;101768.09;4951091;28;10320;-68
2023/10/10 09:09:37;;;;;;;;;65.00;50.00;;;;;16.72;83.47;101762.03;4951095;29;9896;-68
2023/10/10 09:12:12;;;;;;;;;62.00;51.50;;;;;16.68;84.24;101768.94;4951240;29;11621;-68
2023/10/10 09:14:41;;;;;;;;;61.25;48.50;;;;;16.73;84.52;101765.59;4933708;29;10964;-68
2023/10/10 09:17:35;;;;;;;;;47.75;40.00;;;;;16.87;84.44;101769.16;4950997;28;10889;-67
2023/10/10 09:20:22;;;;;;;;;44.25;38.00;;;;;16.96;84.25;101767.88;4951024;29;10229;-68
2023/10/10 09:22:54;;;;;;;;;56.75;47.75;;;;;16.97;83.79;101774.97;4951107;29;10433;-67
2023/10/10 09:25:31;;;;;;;;;37.25;35.00;;;;;17.04;83.85;101765.75;4951179;28;11461;-68
2023/10/10 09:28:07;;;;;;;;;56.25;45.50;;;;;17.01;83.74;101759.88;4985139;23;10016;-71
2023/10/10 09:30:40;;;;;;;;;48.25;40.50;;;;;17.01;84.31;101757.16;4971902;28;10786;-72
2023/10/10 09:33:13;;;;;;;;;53.75;46.50;;;;;17.05;84.21;101758.41;4971734;28;11125;-72
2023/10/10 09:35:40;;;;;;;;;64.50;53.25;;;;;17.09;84.05;101761.53;4989298;28;10298;-71
2023/10/10 09:38:18;;;;;;;;;57.00;47.25;;;;;17.17;84.15;101767.56;4988769;28;10933;-72
2023/10/10 09:40:48;;;;;;;;;55.50;46.25;;;;;17.21;84.13;101759.81;4971619;28;10686;-72
2023/10/10 09:43:25;;;;;;;;;62.50;51.00;;;;;17.24;83.51;101765.66;4971516;28;10625;-71
2023/10/10 09:45:59;;;;;;;;;66.00;51.00;;;;;17.23;83.87;101761.28;4974752;28;11038;-72
2023/10/10 09:48:59;;;;;;;;;56.00;45.25;;;;;17.30;83.63;101756.66;4992416;28;11131;-71
2023/10/10 09:54:15;;;;;;;;;57.50;45.00;;;;;17.46;83.55;101754.44;4975151;28;10939;-71
2023/10/10 09:56:47;;;;;;;;;55.75;47.00;;;;;17.58;83.16;101758.16;4992295;28;10464;-72
2023/10/10 09:59:16;;;;;;;;;63.25;51.75;;;;;17.61;82.92;101760.44;4992372;28;10705;-71
2023/10/10 10:01:46;;;;;;;;;61.50;48.50;;;;;17.59;83.03;101761.75;4992222;28;10787;-72
2023/10/10 10:04:25;;;;;;;;;64.75;51.25;;;;;17.59;83.04;101765.28;4975578;28;10876;-71
2023/10/10 10:07:15;;;;;;;;;53.00;44.75;;;;;17.69;82.57;101754.75;4974530;28;11465;-72
2023/10/10 10:10:09;;;;;;;;;59.25;50.75;;;;;17.67;82.95;101759.59;4992384;28;10705;-72
2023/10/10 10:13:00;;;;;;;;;57.00;45.00;;;;;17.71;82.85;101744.47;4958701;28;10835;-71
2023/10/10 10:15:53;;;;;;;;;44.75;39.00;;;;;17.79;82.77;101743.41;4992548;28;10341;-72
2023/10/10 10:18:28;;;;;;;;;59.50;47.50;;;;;17.81;82.91;101746.75;4992050;28;10016;-71
2023/10/10 10:23:44;;;;;;;;;50.50;43.25;;;;;17.90;82.82;101741.84;4992124;28;10659;-71
2023/10/10 10:29:00;;;;;;;;;40.25;35.75;;;;;18.04;82.56;101748.88;4991988;28;10439;-71
2023/10/10 10:31:35;;;;;;;;;38.50;35.25;;;;;18.13;82.25;101742.09;4974547;28;9811;-72
2023/10/10 10:34:23;;;;;;;;;56.50;47.50;;;;;18.11;82.65;101754.25;4974410;28;9748;-72
2023/10/10 10:37:06;;;;;;;;;52.75;40.25;;;;;18.23;82.19;101753.34;4991291;28;10698;-71
2023/10/10 10:39:35;;;;;;;;;55.75;45.50;;;;;18.25;82.38;101745.75;4974361;28;10799;-71
2023/10/10 10:42:11;;;;;;;;;52.00;41.00;;;;;18.26;82.45;101741.97;4974266;28;11377;-71
2023/10/10 10:47:35;;;;;;;;;56.00;46.25;;;;;18.33;82.26;101746.56;4991223;28;11052;-71
2023/10/10 10:50:04;;;;;;;;;45.50;39.00;;;;;18.38;81.94;101730.34;4958097;28;10707;-72
2023/10/10 10:52:44;;;;;;;;;47.25;37.00;;;;;18.51;81.41;101733.78;4990357;28;10118;-72
2023/10/10 10:55:22;;;;;;;;;48.00;39.00;;;;;18.59;80.75;101732.63;4991118;28;10423;-72
2023/10/10 10:58:05;;;;;;;;;52.50;43.00;;;;;18.57;80.45;101726.59;4990705;28;10051;-72
2023/10/10 11:01:00;;;;;;;;;38.00;35.50;;;;;18.69;80.21;101734.88;4973878;28;10123;-71
2023/10/10 11:03:35;;;;;;;;;49.50;40.25;;;;;18.79;79.75;101735.19;4973859;28;9869;-72
2023/10/10 11:06:07;;;;;;;;;43.75;35.25;;;;;18.88;79.30;101739.31;4957561;28;9995;-71
2023/10/10 11:13:54;;;;;;;;;53.00;43.25;;;;;18.96;78.45;101725.34;4991013;28;9382;-72
2023/10/10 11:16:24;;;;;;;;;42.50;38.25;;;;;18.99;78.52;101715.84;4973305;28;10237;-71
2023/10/10 11:18:57;;;;;;;;;51.50;40.75;;;;;18.97;78.60;101721.56;4973789;28;9889;-72
2023/10/10 11:21:27;;;;;;;;;32.00;30.00;;;;;18.99;78.19;101707.66;4957724;28;10050;-72
2023/10/10 11:23:57;;;;;;;;;40.50;37.50;;;;;18.94;78.64;101713.00;4957472;28;9177;-72
2023/10/10 11:26:33;;;;;;;;;49.50;40.75;;;;;18.89;78.84;101718.31;4972810;28;9800;-72
2023/10/10 11:29:01;;;;;;;;;44.33;37.33;;;;;18.93;78.79;101703.97;4990496;28;10070;-72
2023/10/10 11:31:33;;;;;;;;;52.00;41.50;;;;;18.87;78.95;101698.59;4973523;28;9411;-71
2023/10/10 11:34:25;;;;;;;;;47.00;39.75;;;;;18.91;78.94;101697.06;4990828;28;10052;-71
2023/10/10 11:37:32;;;;;;;;;41.00;38.00;;;;;19.00;78.74;101695.72;4990235;28;10002;-72
2023/10/10 11:42:59;;;;;;;;;31.50;29.50;;;;;19.15;78.17;101696.13;4990651;28;9324;-72
2023/10/10 11:45:26;;;;;;;;;34.00;28.33;;;;;19.18;77.97;101698.41;4990577;28;9484;-71
2023/10/10 11:48:00;;;;;;;;;38.25;33.75;;;;;19.18;77.48;101692.94;4990227;28;9378;-72
2023/10/10 11:50:46;;;;;;;;;33.33;31.33;;;;;19.27;77.41;101688.00;4990486;28;10222;-71
2023/10/10 11:53:23;;;;;;;;;29.33;26.67;;;;;19.34;76.98;101687.91;4973239;28;9333;-72
2023/10/10 11:55:54;;;;;;;;;31.67;31.33;;;;;19.39;76.71;101683.41;4972845;28;9256;-70
2023/10/10 11:58:23;;;;;;;;;32.67;29.67;;;;;19.37;76.34;101684.72;4989943;28;9358;-71
2023/10/10 12:01:03;;;;;;;;;35.67;31.67;;;;;19.45;76.33;101681.66;4972609;28;9990;-71
2023/10/10 12:06:14;;;;;;;;;25.33;25.33;;;;;19.59;75.74;101677.66;4990017;28;10075;-71
2023/10/10 12:08:46;;;;;;;;;21.67;21.00;;;;;19.73;75.34;101683.78;4972146;28;9099;-71
2023/10/10 12:11:15;;;;;;;;;26.00;24.67;;;;;19.76;75.01;101686.84;4990319;28;8936;-71
2023/10/10 12:13:44;;;;;;;;;26.00;23.75;;;;;19.76;74.90;101678.66;4990421;28;9027;-71
2023/10/10 12:16:10;;;;;;;;;29.00;28.67;;;;;19.76;74.70;101670.47;4972543;28;9550;-71
2023/10/10 12:18:45;;;;;;;;;31.67;28.67;;;;;19.71;74.79;101669.50;4972903;28;9215;-71
2023/10/10 12:21:20;;;;;;;;;26.33;25.33;;;;;19.71;74.73;101664.88;4990287;28;9177;-71
2023/10/10 12:23:47;;;;;;;;;31.33;25.00;;;;;19.74;74.86;101666.31;4990187;28;9019;-70
2023/10/10 12:26:17;;;;;;;;;17.75;15.75;;;;;19.76;74.98;101664.16;4972483;28;9213;-70
2023/10/10 12:28:47;;;;;;;;;27.00;24.67;;;;;19.71;75.10;101659.41;4972259;28;8889;-70
2023/10/10 12:31:16;;;;;;;;;35.00;31.00;;;;;19.64;75.37;101661.41;4988577;28;9003;-71
2023/10/10 12:33:45;;;;;;;;;24.25;20.75;;;;;19.66;75.19;101656.56;4972236;28;9468;-70
2023/10/10 12:36:12;;;;;;;;;26.00;22.50;;;;;19.74;75.09;101649.94;4989618;28;8859;-73
2023/10/10 12:38:38;;;;;;;;;32.00;30.00;;;;;19.73;75.40;101646.38;4989798;28;8941;-72
2023/10/10 12:41:05;;;;;;;;;26.67;23.33;;;;;19.81;75.41;101653.38;4972541;28;9286;-72
2023/10/10 12:43:31;;;;;;;;;27.67;24.33;;;;;19.86;75.44;101656.22;4989725;28;9921;-72
2023/10/10 12:46:01;;;;;;;;;34.33;33.00;;;;;19.85;75.44;101645.53;4989559;28;9003;-71
2023/10/10 12:48:28;;;;;;;;;25.33;21.00;;;;;19.88;75.07;101645.88;4971938;28;9261;-72
2023/10/10 12:51:00;;;;;;;;;29.50;25.00;;;;;19.91;74.97;101650.06;4989771;28;9833;-72
2023/10/10 12:53:31;;;;;;;;;21.67;21.33;;;;;19.85;74.79;101643.66;4972220;28;8834;-74
2023/10/10 12:56:01;;;;;;;;;25.25;23.75;;;;;19.85;74.73;101643.66;4972200;28;9105;-70
2023/10/10 12:58:30;;;;;;;;;18.50;15.75;;;;;19.90;74.85;101642.94;4989591;28;8843;-71
2023/10/10 13:00:58;;;;;;;;;28.67;26.33;;;;;19.89;74.90;101646.72;4989408;28;8937;-73
2023/10/10 13:03:29;;;;;;;;;25.00;23.00;;;;;19.93;74.58;101635.09;4972257;28;9219;-73
2023/10/10 13:05:58;;;;;;;;;24.33;20.33;;;;;20.08;74.04;101647.44;4972003;28;8940;-71
2023/10/10 13:08:39;;;;;;;;;24.00;20.25;;;;;20.21;73.61;101639.81;4971998;28;8910;-70
2023/10/10 13:11:14;;;;;;;;;26.25;21.00;;;;;20.30;73.47;101643.03;4989477;28;8847;-71
2023/10/10 13:13:56;;;;;;;;;23.00;20.33;;;;;20.41;73.40;101644.91;4972249;28;9285;-73
2023/10/10 13:19:11;;;;;;;;;26.00;22.50;;;;;20.44;72.74;101643.59;4973108;28;8864;-72
2023/10/10 13:21:39;;;;;;;;;27.33;25.00;;;;;20.41;72.64;101644.09;4975845;28;8862;-72
2023/10/10 13:24:13;;;;;;;;;23.25;20.75;;;;;20.43;72.55;101648.25;4993369;28;8918;-73
2023/10/10 13:26:49;;;;;;;;;28.25;26.00;;;;;20.33;73.08;101647.19;4992553;28;9585;-72
2023/10/10 13:29:16;;;;;;;;;20.50;19.50;;;;;20.31;72.99;101644.69;4993299;28;9128;-72
2023/10/10 13:31:44;;;;;;;;;21.75;21.75;;;;;20.30;73.25;101650.41;4975336;28;8870;-72
2023/10/10 13:34:11;;;;;;;;;23.25;21.25;;;;;20.23;73.17;101651.34;4975503;28;9032;-72
2023/10/10 13:36:38;;;;;;;;;29.00;25.00;;;;;20.15;73.27;101646.25;4959165;28;8868;-73
2023/10/10 13:39:09;;;;;;;;;19.00;17.50;;;;;20.17;73.28;101648.75;4975333;28;8913;-73
2023/10/10 13:41:38;;;;;;;;;21.75;18.75;;;;;20.18;73.38;101644.97;4992949;28;8852;-73
2023/10/10 13:44:05;;;;;;;;;30.50;27.25;;;;;20.17;73.08;101646.00;4975473;28;8843;-72
2023/10/10 13:46:33;;;;;;;;;23.00;19.75;;;;;20.14;72.98;101644.59;4992257;28;8957;-72
2023/10/10 13:49:00;;;;;;;;;19.75;19.75;;;;;20.10;72.68;101640.69;4992698;28;8888;-72
2023/10/10 13:51:29;;;;;;;;;32.00;31.33;;;;;19.99;72.96;101642.34;4992739;28;8846;-72
2023/10/10 13:53:56;;;;;;;;;23.50;20.50;;;;;20.03;72.92;101639.97;4975212;28;9086;-72
2023/10/10 13:56:24;;;;;;;;;35.67;29.67;;;;;19.99;72.85;101636.88;4992332;28;9594;-71
2023/10/10 13:58:52;;;;;;;;;31.00;30.67;;;;;20.00;72.92;101630.31;4992629;28;9086;-71
2023/10/10 14:01:54;;;;;;;;;26.33;23.00;;;;;20.00;72.74;101633.06;4992269;28;9092;-73
2023/10/10 14:04:26;;;;;;;;;31.00;29.67;;;;;19.92;72.98;101630.69;4989795;28;9782;-71
2023/10/10 14:06:54;;;;;;;;;28.00;24.67;;;;;19.88;73.01;101634.94;4974886;28;9162;-72
2023/10/10 14:09:31;;;;;;;;;23.50;21.25;;;;;19.98;73.25;101632.47;4974797;28;9770;-70
2023/10/10 14:12:02;;;;;;;;;30.33;27.00;;;;;19.92;73.33;101618.91;4958838;28;8843;-71
2023/10/10 14:14:30;;;;;;;;;33.00;30.67;;;;;19.90;73.34;101618.34;4992524;28;9112;-71
2023/10/10 14:16:57;;;;;;;;;32.67;27.33;;;;;19.96;73.42;101620.94;4958495;28;9090;-71
2023/10/10 14:19:24;;;;;;;;;34.67;31.00;;;;;19.98;73.58;101613.34;4992192;28;8968;-73
2023/10/10 14:21:54;;;;;;;;;30.25;25.25;;;;;20.00;73.49;101607.63;4992066;28;9049;-71